sensor_id;sensor_type;location;lat;lon;timestamp;pressure;altitude;pressure_sealevel;temperature;humidity
64644;BME280;51056;50.330;7.914;2023-05-23T00:03:01;100572.81;;;18.97;80.27
64644;BME280;51056;50.330;7.914;2023-05-23T00:06:05;100574.56;;;18.87;82.03
64644;BME280;51056;50.330;7.914;2023-05-23T00:09:08;100574.69;;;18.85;82.48
64644;BME280;51056;50.330;7.914;2023-05-23T00:12:12;100564.41;;;18.92;81.67
64644;BME280;51056;50.330;7.914;2023-05-23T00:15:15;100574.44;;;18.88;81.80
64644;BME280;51056;50.330;7.914;2023-05-23T00:18:18;100569.53;;;18.84;82.12
64644;BME280;51056;50.330;7.914;2023-05-23T00:21:22;100568.72;;;18.83;82.19
64644;BME280;51056;50.330;7.914;2023-05-23T00:24:25;100574.53;;;18.77;80.13
64644;BME280;51056;50.330;7.914;2023-05-23T00:27:29;100585.88;;;18.68;80.95
64644;BME280;51056;50.330;7.914;2023-05-23T00:30:32;100589.09;;;18.71;78.95
64644;BME280;51056;50.330;7.914;2023-05-23T00:33:36;100587.44;;;18.70;78.58
64644;BME280;51056;50.330;7.914;2023-05-23T00:36:40;100584.06;;;18.68;77.57
64644;BME280;51056;50.330;7.914;2023-05-23T00:39:46;100589.16;;;18.60;77.55
64644;BME280;51056;50.330;7.914;2023-05-23T00:42:49;100602.03;;;18.44;77.27
64644;BME280;51056;50.330;7.914;2023-05-23T00:45:52;100584.00;;;18.38;77.08
64644;BME280;51056;50.330;7.914;2023-05-23T00:48:56;100591.88;;;18.28;76.84
64644;BME280;51056;50.330;7.914;2023-05-23T00:52:00;100588.97;;;18.10;77.08
64644;BME280;51056;50.330;7.914;2023-05-23T00:55:04;100587.03;;;18.12;76.51
64644;BME280;51056;50.330;7.914;2023-05-23T00:58:08;100591.03;;;18.06;75.93
64644;BME280;51056;50.330;7.914;2023-05-23T01:01:11;100597.78;;;17.99;76.32
64644;BME280;51056;50.330;7.914;2023-05-23T01:04:16;100597.19;;;17.96;76.74
64644;BME280;51056;50.330;7.914;2023-05-23T01:07:20;100602.88;;;17.91;76.80
64644;BME280;51056;50.330;7.914;2023-05-23T01:10:28;100601.56;;;17.85;75.77
64644;BME280;51056;50.330;7.914;2023-05-23T01:13:40;100609.75;;;17.71;77.17
64644;BME280;51056;50.330;7.914;2023-05-23T01:16:54;100617.50;;;17.52;79.59
64644;BME280;51056;50.330;7.914;2023-05-23T01:20:01;100613.19;;;17.39;80.31
64644;BME280;51056;50.330;7.914;2023-05-23T01:29:56;100614.50;;;17.11;79.96
64644;BME280;51056;50.330;7.914;2023-05-23T01:33:00;100606.81;;;17.08;79.61
64644;BME280;51056;50.330;7.914;2023-05-23T01:36:04;100614.91;;;16.71;81.25
64644;BME280;51056;50.330;7.914;2023-05-23T01:39:08;100619.28;;;16.84;81.44
64644;BME280;51056;50.330;7.914;2023-05-23T01:42:12;100622.28;;;16.90;79.79
64644;BME280;51056;50.330;7.914;2023-05-23T01:45:19;100629.63;;;16.98;78.81
64644;BME280;51056;50.330;7.914;2023-05-23T01:48:25;100636.22;;;17.04;78.45
64644;BME280;51056;50.330;7.914;2023-05-23T01:51:30;100636.34;;;17.02;78.24
64644;BME280;51056;50.330;7.914;2023-05-23T01:54:33;100634.41;;;16.93;78.75
64644;BME280;51056;50.330;7.914;2023-05-23T01:57:37;100635.41;;;16.57;78.70
64644;BME280;51056;50.330;7.914;2023-05-23T02:00:41;100634.81;;;16.64;78.48
64644;BME280;51056;50.330;7.914;2023-05-23T02:03:45;100632.25;;;16.76;77.94
64644;BME280;51056;50.330;7.914;2023-05-23T02:06:48;100638.50;;;16.86;77.11
64644;BME280;51056;50.330;7.914;2023-05-23T02:09:51;100632.63;;;16.82;76.73
64644;BME280;51056;50.330;7.914;2023-05-23T02:12:55;100629.97;;;16.82;76.77
64644;BME280;51056;50.330;7.914;2023-05-23T02:15:58;100631.16;;;16.78;77.04
64644;BME280;51056;50.330;7.914;2023-05-23T02:19:01;100622.72;;;16.73;76.93
64644;BME280;51056;50.330;7.914;2023-05-23T02:22:05;100629.91;;;16.71;77.07
64644;BME280;51056;50.330;7.914;2023-05-23T02:25:08;100630.84;;;16.59;78.68
64644;BME280;51056;50.330;7.914;2023-05-23T02:28:12;100636.09;;;16.47;79.99
64644;BME280;51056;50.330;7.914;2023-05-23T02:31:18;100645.84;;;16.58;79.29
64644;BME280;51056;50.330;7.914;2023-05-23T02:34:22;100642.00;;;16.51;79.82
64644;BME280;51056;50.330;7.914;2023-05-23T02:37:25;100643.56;;;16.54;79.95
64644;BME280;51056;50.330;7.914;2023-05-23T02:40:29;100643.44;;;16.55;80.09
64644;BME280;51056;50.330;7.914;2023-05-23T02:43:32;100657.28;;;16.70;79.42
64644;BME280;51056;50.330;7.914;2023-05-23T02:46:35;100655.19;;;16.62;80.01
64644;BME280;51056;50.330;7.914;2023-05-23T02:49:40;100658.19;;;16.58;80.83
64644;BME280;51056;50.330;7.914;2023-05-23T02:52:43;100659.56;;;16.74;79.75
64644;BME280;51056;50.330;7.914;2023-05-23T02:55:47;100662.06;;;16.65;79.63
64644;BME280;51056;50.330;7.914;2023-05-23T02:58:50;100668.13;;;16.78;78.85
64644;BME280;51056;50.330;7.914;2023-05-23T03:06:13;100673.69;;;16.62;80.85
64644;BME280;51056;50.330;7.914;2023-05-23T03:09:19;100673.22;;;16.68;80.60
64644;BME280;51056;50.330;7.914;2023-05-23T03:12:22;100678.03;;;16.74;79.73
64644;BME280;51056;50.330;7.914;2023-05-23T03:15:25;100686.09;;;16.73;79.40
64644;BME280;51056;50.330;7.914;2023-05-23T03:18:29;100687.84;;;16.61;75.94
64644;BME280;51056;50.330;7.914;2023-05-23T03:21:32;100689.47;;;16.75;74.68
64644;BME280;51056;50.330;7.914;2023-05-23T03:24:37;100691.19;;;16.76;73.38
64644;BME280;51056;50.330;7.914;2023-05-23T03:27:40;100693.84;;;16.87;72.78
64644;BME280;51056;50.330;7.914;2023-05-23T03:30:43;100691.31;;;16.86;72.11
64644;BME280;51056;50.330;7.914;2023-05-23T03:33:47;100692.38;;;16.83;72.71
64644;BME280;51056;50.330;7.914;2023-05-23T03:36:51;100695.75;;;16.85;71.44
64644;BME280;51056;50.330;7.914;2023-05-23T03:39:54;100691.19;;;16.76;72.36
64644;BME280;51056;50.330;7.914;2023-05-23T03:43:03;100687.25;;;16.82;71.96
64644;BME280;51056;50.330;7.914;2023-05-23T03:46:08;100696.16;;;16.68;76.19
64644;BME280;51056;50.330;7.914;2023-05-23T03:49:12;100686.03;;;16.62;73.64
64644;BME280;51056;50.330;7.914;2023-05-23T03:52:15;100695.69;;;16.74;72.13
64644;BME280;51056;50.330;7.914;2023-05-23T03:55:20;100691.38;;;16.73;71.13
64644;BME280;51056;50.330;7.914;2023-05-23T03:58:27;100698.75;;;16.81;69.98
64644;BME280;51056;50.330;7.914;2023-05-23T04:01:35;100703.38;;;16.66;70.72
64644;BME280;51056;50.330;7.914;2023-05-23T04:04:38;100703.47;;;16.64;70.59
64644;BME280;51056;50.330;7.914;2023-05-23T04:07:43;100702.03;;;16.71;70.65
64644;BME280;51056;50.330;7.914;2023-05-23T04:10:47;100701.34;;;16.45;71.68
64644;BME280;51056;50.330;7.914;2023-05-23T04:13:50;100711.66;;;16.37;71.04
64644;BME280;51056;50.330;7.914;2023-05-23T04:16:54;100705.34;;;16.27;71.00
64644;BME280;51056;50.330;7.914;2023-05-23T04:19:58;100695.13;;;16.46;70.70
64644;BME280;51056;50.330;7.914;2023-05-23T04:23:01;100700.00;;;16.16;71.16
64644;BME280;51056;50.330;7.914;2023-05-23T04:26:07;100704.31;;;16.17;71.03
64644;BME280;51056;50.330;7.914;2023-05-23T04:29:16;100705.72;;;16.10;71.42
64644;BME280;51056;50.330;7.914;2023-05-23T04:32:20;100713.25;;;16.27;72.71
64644;BME280;51056;50.330;7.914;2023-05-23T04:35:25;100720.41;;;16.38;70.67
64644;BME280;51056;50.330;7.914;2023-05-23T04:38:31;100725.31;;;16.42;70.09
64644;BME280;51056;50.330;7.914;2023-05-23T04:41:37;100740.88;;;16.58;69.65
64644;BME280;51056;50.330;7.914;2023-05-23T04:44:59;100742.50;;;16.48;70.50
64644;BME280;51056;50.330;7.914;2023-05-23T04:48:22;100753.03;;;16.24;71.15
64644;BME280;51056;50.330;7.914;2023-05-23T04:51:26;100759.59;;;16.31;71.31
64644;BME280;51056;50.330;7.914;2023-05-23T04:54:34;100748.25;;;16.42;71.34
64644;BME280;51056;50.330;7.914;2023-05-23T04:57:40;100752.41;;;16.57;69.24
64644;BME280;51056;50.330;7.914;2023-05-23T05:00:44;100748.09;;;16.56;68.90
64644;BME280;51056;50.330;7.914;2023-05-23T05:04:10;100749.38;;;16.50;69.24
64644;BME280;51056;50.330;7.914;2023-05-23T05:07:19;100744.25;;;16.60;68.51
64644;BME280;51056;50.330;7.914;2023-05-23T05:10:24;100743.63;;;16.57;68.78
64644;BME280;51056;50.330;7.914;2023-05-23T05:13:27;100735.88;;;16.66;68.28
64644;BME280;51056;50.330;7.914;2023-05-23T05:16:59;100740.38;;;16.77;68.03
64644;BME280;51056;50.330;7.914;2023-05-23T05:20:50;100732.28;;;16.67;68.60
64644;BME280;51056;50.330;7.914;2023-05-23T05:23:54;100745.84;;;16.74;68.79
64644;BME280;51056;50.330;7.914;2023-05-23T05:26:59;100743.44;;;16.71;68.35
64644;BME280;51056;50.330;7.914;2023-05-23T05:30:08;100747.09;;;16.81;70.29
64644;BME280;51056;50.330;7.914;2023-05-23T05:33:22;100753.63;;;16.88;69.32
64644;BME280;51056;50.330;7.914;2023-05-23T05:36:27;100763.19;;;16.78;69.17
64644;BME280;51056;50.330;7.914;2023-05-23T05:39:31;100764.06;;;16.79;68.66
64644;BME280;51056;50.330;7.914;2023-05-23T05:42:35;100769.53;;;16.51;68.81
64644;BME280;51056;50.330;7.914;2023-05-23T05:45:38;100770.53;;;16.38;69.81
64644;BME280;51056;50.330;7.914;2023-05-23T05:48:42;100768.63;;;16.40;69.65
64644;BME280;51056;50.330;7.914;2023-05-23T05:51:48;100782.22;;;16.46;70.22
64644;BME280;51056;50.330;7.914;2023-05-23T05:54:51;100773.94;;;16.27;70.75
64644;BME280;51056;50.330;7.914;2023-05-23T05:57:54;100776.78;;;16.24;70.89
64644;BME280;51056;50.330;7.914;2023-05-23T06:00:58;100783.97;;;16.35;71.13
64644;BME280;51056;50.330;7.914;2023-05-23T06:04:02;100778.31;;;16.39;70.63
64644;BME280;51056;50.330;7.914;2023-05-23T06:07:06;100781.88;;;16.51;70.59
64644;BME280;51056;50.330;7.914;2023-05-23T06:10:09;100778.06;;;16.31;70.95
64644;BME280;51056;50.330;7.914;2023-05-23T06:13:16;100776.03;;;16.35;71.21
64644;BME280;51056;50.330;7.914;2023-05-23T06:16:22;100782.91;;;15.88;73.36
64644;BME280;51056;50.330;7.914;2023-05-23T06:19:25;100782.53;;;16.18;73.30
64644;BME280;51056;50.330;7.914;2023-05-23T06:22:30;100790.06;;;16.35;73.24
64644;BME280;51056;50.330;7.914;2023-05-23T06:25:34;100795.16;;;16.25;73.04
64644;BME280;51056;50.330;7.914;2023-05-23T06:28:37;100787.25;;;16.25;72.83
64644;BME280;51056;50.330;7.914;2023-05-23T06:31:43;100793.28;;;16.51;72.77
64644;BME280;51056;50.330;7.914;2023-05-23T06:34:46;100791.25;;;16.55;73.77
64644;BME280;51056;50.330;7.914;2023-05-23T06:37:49;100795.53;;;16.69;72.50
64644;BME280;51056;50.330;7.914;2023-05-23T06:40:54;100797.22;;;16.70;72.54
64644;BME280;51056;50.330;7.914;2023-05-23T06:43:58;100790.09;;;16.59;72.98
64644;BME280;51056;50.330;7.914;2023-05-23T06:47:05;100804.59;;;16.54;72.80
64644;BME280;51056;50.330;7.914;2023-05-23T06:50:09;100799.41;;;16.52;73.35
64644;BME280;51056;50.330;7.914;2023-05-23T06:53:12;100799.44;;;16.39;73.21
64644;BME280;51056;50.330;7.914;2023-05-23T06:56:17;100799.44;;;16.39;73.22
64644;BME280;51056;50.330;7.914;2023-05-23T06:59:30;100798.00;;;16.35;73.38
64644;BME280;51056;50.330;7.914;2023-05-23T07:02:34;100799.84;;;16.46;73.57
64644;BME280;51056;50.330;7.914;2023-05-23T07:05:40;100804.06;;;16.48;73.13
64644;BME280;51056;50.330;7.914;2023-05-23T07:08:44;100814.25;;;16.66;73.96
64644;BME280;51056;50.330;7.914;2023-05-23T07:11:49;100802.28;;;16.73;72.64
64644;BME280;51056;50.330;7.914;2023-05-23T07:14:52;100809.81;;;16.90;71.80
64644;BME280;51056;50.330;7.914;2023-05-23T07:17:56;100803.09;;;16.86;72.22
64644;BME280;51056;50.330;7.914;2023-05-23T07:21:00;100799.84;;;16.94;71.66
64644;BME280;51056;50.330;7.914;2023-05-23T07:24:04;100799.06;;;17.05;70.36
64644;BME280;51056;50.330;7.914;2023-05-23T07:27:08;100808.56;;;16.59;72.21
64644;BME280;51056;50.330;7.914;2023-05-23T07:30:14;100809.41;;;16.23;72.73
64644;BME280;51056;50.330;7.914;2023-05-23T07:33:18;100806.13;;;15.95;74.56
64644;BME280;51056;50.330;7.914;2023-05-23T07:36:24;100814.75;;;16.47;73.35
64644;BME280;51056;50.330;7.914;2023-05-23T07:39:29;100803.94;;;16.74;72.43
64644;BME280;51056;50.330;7.914;2023-05-23T07:42:36;100810.03;;;16.63;72.43
64644;BME280;51056;50.330;7.914;2023-05-23T07:45:39;100811.47;;;16.67;71.72
64644;BME280;51056;50.330;7.914;2023-05-23T07:48:42;100817.94;;;16.76;71.89
64644;BME280;51056;50.330;7.914;2023-05-23T07:51:49;100814.31;;;17.01;70.76
64644;BME280;51056;50.330;7.914;2023-05-23T07:54:55;100801.53;;;17.30;69.73
64644;BME280;51056;50.330;7.914;2023-05-23T07:57:58;100815.00;;;16.92;71.00
64644;BME280;51056;50.330;7.914;2023-05-23T08:01:02;100804.97;;;16.60;72.20
64644;BME280;51056;50.330;7.914;2023-05-23T08:04:41;100807.63;;;16.60;72.79
64644;BME280;51056;50.330;7.914;2023-05-23T08:07:44;100824.72;;;16.55;72.10
64644;BME280;51056;50.330;7.914;2023-05-23T08:11:07;100825.97;;;16.62;71.25
64644;BME280;51056;50.330;7.914;2023-05-23T08:14:22;100833.53;;;16.79;71.42
64644;BME280;51056;50.330;7.914;2023-05-23T08:17:51;100829.72;;;16.83;71.50
64644;BME280;51056;50.330;7.914;2023-05-23T08:20:58;100843.34;;;16.53;70.49
64644;BME280;51056;50.330;7.914;2023-05-23T08:24:01;100839.06;;;16.63;71.43
64644;BME280;51056;50.330;7.914;2023-05-23T08:27:05;100847.81;;;16.64;71.24
64644;BME280;51056;50.330;7.914;2023-05-23T08:30:10;100848.97;;;16.72;72.01
64644;BME280;51056;50.330;7.914;2023-05-23T08:33:14;100853.63;;;16.69;71.13
64644;BME280;51056;50.330;7.914;2023-05-23T08:36:20;100859.59;;;16.84;71.96
64644;BME280;51056;50.330;7.914;2023-05-23T08:39:25;100856.69;;;17.00;72.55
64644;BME280;51056;50.330;7.914;2023-05-23T08:42:37;100858.66;;;16.85;73.41
64644;BME280;51056;50.330;7.914;2023-05-23T08:45:42;100859.22;;;17.01;73.12
64644;BME280;51056;50.330;7.914;2023-05-23T08:48:50;100856.88;;;16.85;73.48
64644;BME280;51056;50.330;7.914;2023-05-23T08:51:58;100856.72;;;16.63;74.23
64644;BME280;51056;50.330;7.914;2023-05-23T08:55:04;100856.19;;;16.58;73.50
64644;BME280;51056;50.330;7.914;2023-05-23T08:58:09;100854.91;;;16.63;73.25
64644;BME280;51056;50.330;7.914;2023-05-23T09:01:25;100860.97;;;16.89;72.65
64644;BME280;51056;50.330;7.914;2023-05-23T09:04:31;100866.03;;;16.92;72.48
64644;BME280;51056;50.330;7.914;2023-05-23T09:07:40;100865.34;;;17.02;71.82
64644;BME280;51056;50.330;7.914;2023-05-23T09:10:43;100865.22;;;17.03;70.96
64644;BME280;51056;50.330;7.914;2023-05-23T09:13:49;100876.03;;;16.76;71.81
64644;BME280;51056;50.330;7.914;2023-05-23T09:16:59;100872.13;;;16.69;72.21
64644;BME280;51056;50.330;7.914;2023-05-23T09:20:12;100874.53;;;16.72;72.56
64644;BME280;51056;50.330;7.914;2023-05-23T09:23:21;100870.53;;;16.79;72.47
64644;BME280;51056;50.330;7.914;2023-05-23T09:26:24;100874.63;;;16.83;72.14
64644;BME280;51056;50.330;7.914;2023-05-23T09:29:36;100875.63;;;16.57;73.20
64644;BME280;51056;50.330;7.914;2023-05-23T09:32:42;100892.78;;;16.38;73.24
64644;BME280;51056;50.330;7.914;2023-05-23T09:35:58;100886.88;;;16.35;73.98
64644;BME280;51056;50.330;7.914;2023-05-23T09:39:03;100895.88;;;16.07;75.03
64644;BME280;51056;50.330;7.914;2023-05-23T09:42:07;100898.50;;;15.94;75.96
64644;BME280;51056;50.330;7.914;2023-05-23T09:45:11;100890.59;;;15.94;75.70
64644;BME280;51056;50.330;7.914;2023-05-23T09:48:14;100888.78;;;15.69;76.72
64644;BME280;51056;50.330;7.914;2023-05-23T09:51:19;100896.81;;;15.67;77.25
64644;BME280;51056;50.330;7.914;2023-05-23T09:54:23;100891.03;;;16.00;76.63
64644;BME280;51056;50.330;7.914;2023-05-23T09:57:26;100899.34;;;15.94;76.41
64644;BME280;51056;50.330;7.914;2023-05-23T10:00:30;100901.47;;;15.89;76.48
64644;BME280;51056;50.330;7.914;2023-05-23T10:03:52;100899.34;;;16.20;76.44
64644;BME280;51056;50.330;7.914;2023-05-23T10:07:04;100897.44;;;16.35;75.27
64644;BME280;51056;50.330;7.914;2023-05-23T10:10:12;100912.75;;;16.17;74.85
64644;BME280;51056;50.330;7.914;2023-05-23T10:13:16;100906.94;;;16.37;73.66
64644;BME280;51056;50.330;7.914;2023-05-23T10:16:29;100895.19;;;16.41;73.79
64644;BME280;51056;50.330;7.914;2023-05-23T10:19:49;100897.03;;;17.02;71.87
64644;BME280;51056;50.330;7.914;2023-05-23T10:23:00;100894.28;;;17.27;75.06
64644;BME280;51056;50.330;7.914;2023-05-23T10:26:07;100897.69;;;17.40;72.46
64644;BME280;51056;50.330;7.914;2023-05-23T10:29:16;100907.56;;;17.50;71.49
64644;BME280;51056;50.330;7.914;2023-05-23T10:32:24;100914.81;;;17.59;69.67
64644;BME280;51056;50.330;7.914;2023-05-23T10:39:14;100899.72;;;17.83;67.69
64644;BME280;51056;50.330;7.914;2023-05-23T10:45:41;100899.78;;;18.51;65.57
64644;BME280;51056;50.330;7.914;2023-05-23T10:48:45;100905.56;;;18.45;64.15
64644;BME280;51056;50.330;7.914;2023-05-23T10:51:50;100908.91;;;18.58;63.20
64644;BME280;51056;50.330;7.914;2023-05-23T10:55:12;100892.88;;;18.71;62.42
64644;BME280;51056;50.330;7.914;2023-05-23T10:58:19;100897.84;;;19.08;62.64
64644;BME280;51056;50.330;7.914;2023-05-23T11:01:25;100897.56;;;18.78;62.10
64644;BME280;51056;50.330;7.914;2023-05-23T11:04:29;100907.84;;;19.04;60.88
64644;BME280;51056;50.330;7.914;2023-05-23T11:07:32;100912.41;;;18.13;63.01
64644;BME280;51056;50.330;7.914;2023-05-23T11:13:58;100917.06;;;17.87;63.79
64644;BME280;51056;50.330;7.914;2023-05-23T11:20:14;100933.16;;;17.49;65.11
64644;BME280;51056;50.330;7.914;2023-05-23T11:23:19;100924.56;;;17.34;65.33
64644;BME280;51056;50.330;7.914;2023-05-23T11:26:33;100949.75;;;16.54;68.01
64644;BME280;51056;50.330;7.914;2023-05-23T11:29:36;100939.19;;;16.79;67.86
64644;BME280;51056;50.330;7.914;2023-05-23T11:32:40;100939.59;;;16.86;67.07
64644;BME280;51056;50.330;7.914;2023-05-23T11:35:45;100940.09;;;16.78;67.67
64644;BME280;51056;50.330;7.914;2023-05-23T11:38:51;100938.31;;;16.91;66.51
64644;BME280;51056;50.330;7.914;2023-05-23T11:42:02;100937.69;;;17.12;66.42
64644;BME280;51056;50.330;7.914;2023-05-23T11:45:08;100948.81;;;17.04;66.14
64644;BME280;51056;50.330;7.914;2023-05-23T11:48:13;100939.66;;;17.21;65.53
64644;BME280;51056;50.330;7.914;2023-05-23T11:51:16;100945.91;;;17.20;64.95
64644;BME280;51056;50.330;7.914;2023-05-23T11:54:24;100951.34;;;17.06;64.96
64644;BME280;51056;50.330;7.914;2023-05-23T12:02:02;100951.84;;;16.61;66.29
64644;BME280;51056;50.330;7.914;2023-05-23T12:05:10;100951.16;;;16.96;65.98
64644;BME280;51056;50.330;7.914;2023-05-23T12:08:15;100948.41;;;17.22;66.12
64644;BME280;51056;50.330;7.914;2023-05-23T12:11:18;100943.81;;;17.36;64.98
64644;BME280;51056;50.330;7.914;2023-05-23T12:14:21;100948.41;;;17.46;64.64
64644;BME280;51056;50.330;7.914;2023-05-23T12:17:25;100947.03;;;17.05;65.35
64644;BME280;51056;50.330;7.914;2023-05-23T12:20:28;100944.34;;;17.53;64.28
64644;BME280;51056;50.330;7.914;2023-05-23T12:23:34;100940.69;;;18.24;62.61
64644;BME280;51056;50.330;7.914;2023-05-23T12:26:56;100951.38;;;18.34;61.62
64644;BME280;51056;50.330;7.914;2023-05-23T12:30:06;100952.09;;;17.67;62.50
64644;BME280;51056;50.330;7.914;2023-05-23T12:33:13;100953.19;;;17.40;63.94
64644;BME280;51056;50.330;7.914;2023-05-23T12:36:25;100957.34;;;17.56;63.30
64644;BME280;51056;50.330;7.914;2023-05-23T12:39:29;100966.53;;;17.15;63.74
64644;BME280;51056;50.330;7.914;2023-05-23T12:42:50;100961.50;;;16.99;64.48
64644;BME280;51056;50.330;7.914;2023-05-23T12:45:57;100969.97;;;17.04;64.65
64644;BME280;51056;50.330;7.914;2023-05-23T12:49:00;100978.69;;;16.42;66.86
64644;BME280;51056;50.330;7.914;2023-05-23T12:52:03;100984.91;;;16.67;66.20
64644;BME280;51056;50.330;7.914;2023-05-23T12:55:07;100985.47;;;16.34;67.29
64644;BME280;51056;50.330;7.914;2023-05-23T12:58:11;100988.19;;;16.19;67.93
64644;BME280;51056;50.330;7.914;2023-05-23T13:01:14;100989.16;;;16.06;68.75
64644;BME280;51056;50.330;7.914;2023-05-23T13:04:18;100999.38;;;16.36;68.80
64644;BME280;51056;50.330;7.914;2023-05-23T13:07:22;100996.66;;;16.63;67.35
64644;BME280;51056;50.330;7.914;2023-05-23T13:10:25;101005.72;;;16.33;67.91
64644;BME280;51056;50.330;7.914;2023-05-23T13:13:28;101014.59;;;15.67;70.67
64644;BME280;51056;50.330;7.914;2023-05-23T13:16:32;101018.72;;;15.71;70.94
64644;BME280;51056;50.330;7.914;2023-05-23T13:19:35;101010.28;;;15.24;72.95
64644;BME280;51056;50.330;7.914;2023-05-23T13:22:39;101024.50;;;15.49;72.51
64644;BME280;51056;50.330;7.914;2023-05-23T13:25:42;101012.13;;;15.64;71.51
64644;BME280;51056;50.330;7.914;2023-05-23T13:28:46;101002.69;;;15.74;71.08
64644;BME280;51056;50.330;7.914;2023-05-23T13:31:52;100991.38;;;16.37;69.67
64644;BME280;51056;50.330;7.914;2023-05-23T13:34:56;100989.44;;;16.78;66.56
64644;BME280;51056;50.330;7.914;2023-05-23T13:38:00;100996.09;;;16.58;66.10
64644;BME280;51056;50.330;7.914;2023-05-23T13:41:03;100982.69;;;16.61;66.28
64644;BME280;51056;50.330;7.914;2023-05-23T13:44:06;100992.94;;;17.15;64.95
64644;BME280;51056;50.330;7.914;2023-05-23T13:47:12;100992.72;;;17.18;63.79
64644;BME280;51056;50.330;7.914;2023-05-23T13:50:16;100989.56;;;17.61;61.44
64644;BME280;51056;50.330;7.914;2023-05-23T13:53:20;100982.84;;;17.81;60.32
64644;BME280;51056;50.330;7.914;2023-05-23T13:56:24;100985.75;;;17.41;60.77
64644;BME280;51056;50.330;7.914;2023-05-23T13:59:28;100988.84;;;17.35;60.38
64644;BME280;51056;50.330;7.914;2023-05-23T14:02:32;100985.56;;;17.79;59.74
64644;BME280;51056;50.330;7.914;2023-05-23T14:05:35;100986.97;;;18.07;58.53
64644;BME280;51056;50.330;7.914;2023-05-23T14:08:39;100984.25;;;18.31;58.47
64644;BME280;51056;50.330;7.914;2023-05-23T14:11:43;100976.91;;;18.46;58.32
64644;BME280;51056;50.330;7.914;2023-05-23T14:14:46;100973.56;;;17.86;58.29
64644;BME280;51056;50.330;7.914;2023-05-23T14:17:51;100978.44;;;17.44;57.92
64644;BME280;51056;50.330;7.914;2023-05-23T14:20:57;100979.94;;;18.64;54.99
64644;BME280;51056;50.330;7.914;2023-05-23T14:24:01;100979.09;;;17.59;57.53
64644;BME280;51056;50.330;7.914;2023-05-23T14:27:05;100973.34;;;17.30;58.94
64644;BME280;51056;50.330;7.914;2023-05-23T14:30:09;100986.47;;;16.95;59.80
64644;BME280;51056;50.330;7.914;2023-05-23T14:33:13;100987.56;;;16.80;59.61
64644;BME280;51056;50.330;7.914;2023-05-23T14:36:17;100998.97;;;16.80;61.07
64644;BME280;51056;50.330;7.914;2023-05-23T14:39:20;100999.69;;;16.82;60.12
64644;BME280;51056;50.330;7.914;2023-05-23T14:42:25;101012.75;;;16.96;59.97
64644;BME280;51056;50.330;7.914;2023-05-23T14:45:29;100998.63;;;17.22;59.51
64644;BME280;51056;50.330;7.914;2023-05-23T14:48:34;100997.31;;;17.75;58.13
64644;BME280;51056;50.330;7.914;2023-05-23T14:51:51;100994.09;;;18.18;56.02
64644;BME280;51056;50.330;7.914;2023-05-23T14:56:13;100982.91;;;21.43;47.13
64644;BME280;51056;50.330;7.914;2023-05-23T14:59:19;100984.50;;;21.05;46.28
64644;BME280;51056;50.330;7.914;2023-05-23T15:02:47;100981.94;;;20.23;47.04
64644;BME280;51056;50.330;7.914;2023-05-23T15:06:22;100992.75;;;19.14;50.40
64644;BME280;51056;50.330;7.914;2023-05-23T15:09:26;100993.88;;;18.66;52.09
64644;BME280;51056;50.330;7.914;2023-05-23T15:12:31;100990.03;;;18.25;53.75
64644;BME280;51056;50.330;7.914;2023-05-23T15:15:42;100983.66;;;18.95;51.43
64644;BME280;51056;50.330;7.914;2023-05-23T15:18:46;100987.75;;;18.99;51.35
64644;BME280;51056;50.330;7.914;2023-05-23T15:21:49;100996.88;;;18.50;52.30
64644;BME280;51056;50.330;7.914;2023-05-23T15:24:53;100991.72;;;18.49;52.67
64644;BME280;51056;50.330;7.914;2023-05-23T15:28:00;100998.16;;;18.11;52.93
64644;BME280;51056;50.330;7.914;2023-05-23T15:31:04;101011.38;;;18.00;54.09
64644;BME280;51056;50.330;7.914;2023-05-23T15:34:08;101004.25;;;17.65;54.31
64644;BME280;51056;50.330;7.914;2023-05-23T15:37:12;101006.56;;;18.05;54.65
64644;BME280;51056;50.330;7.914;2023-05-23T15:40:15;101013.72;;;17.80;54.27
64644;BME280;51056;50.330;7.914;2023-05-23T15:43:19;101004.47;;;17.86;54.05
64644;BME280;51056;50.330;7.914;2023-05-23T15:46:23;100998.44;;;18.30;52.86
64644;BME280;51056;50.330;7.914;2023-05-23T15:49:48;101003.31;;;18.01;52.45
64644;BME280;51056;50.330;7.914;2023-05-23T15:52:51;100993.69;;;20.51;46.91
64644;BME280;51056;50.330;7.914;2023-05-23T15:55:55;101000.56;;;23.14;40.81
64644;BME280;51056;50.330;7.914;2023-05-23T15:58:58;100983.78;;;24.88;37.28
64644;BME280;51056;50.330;7.914;2023-05-23T16:02:02;100983.91;;;23.03;38.37
64644;BME280;51056;50.330;7.914;2023-05-23T16:05:08;100981.53;;;24.07;36.04
64644;BME280;51056;50.330;7.914;2023-05-23T16:08:11;100989.59;;;21.96;39.18
64644;BME280;51056;50.330;7.914;2023-05-23T16:11:15;100997.94;;;21.04;40.42
64644;BME280;51056;50.330;7.914;2023-05-23T16:14:18;100989.19;;;19.79;43.11
64644;BME280;51056;50.330;7.914;2023-05-23T16:17:21;100992.72;;;20.01;43.40
64644;BME280;51056;50.330;7.914;2023-05-23T16:20:24;100995.03;;;19.62;43.82
64644;BME280;51056;50.330;7.914;2023-05-23T16:23:28;100992.63;;;19.59;44.35
64644;BME280;51056;50.330;7.914;2023-05-23T16:26:33;100997.59;;;19.52;44.55
64644;BME280;51056;50.330;7.914;2023-05-23T16:29:38;100999.81;;;18.70;47.01
64644;BME280;51056;50.330;7.914;2023-05-23T16:32:41;100998.47;;;17.84;47.39
64644;BME280;51056;50.330;7.914;2023-05-23T16:35:45;100992.41;;;18.17;47.73
64644;BME280;51056;50.330;7.914;2023-05-23T16:38:49;100996.63;;;18.20;47.51
64644;BME280;51056;50.330;7.914;2023-05-23T16:41:52;100998.94;;;18.47;47.26
64644;BME280;51056;50.330;7.914;2023-05-23T16:44:57;100997.50;;;18.31;46.68